Time;durP1;ratioP1;P1;durP2;ratioP2;P2;SDS_P1;SDS_P2;PMS_P1;PMS_P2;Temp;Humidity;BMP_temperature;BMP_pressure;BME280_temperature;BME280_humidity;BME280_pressure;Samples;Min_cycle;Max_cycle;Signal;HPM_P1;HPM_P2
2022/01/14 00:02:08;;;;;;;11.48;4.93;;;3.10;99.90;;;;;;10250039;28;84998;-53
2022/01/14 00:07:09;;;;;;;10.50;5.35;;;3.00;99.90;;;;;;10249066;28;84946;-55
2022/01/14 00:12:15;;;;;;;12.13;4.35;;;2.90;99.90;;;;;;10249567;28;85183;-50
2022/01/14 00:17:16;;;;;;;16.48;5.50;;;2.90;99.90;;;;;;10256309;28;87218;-52
2022/01/14 00:22:18;;;;;;;13.93;4.28;;;2.80;99.90;;;;;;10289477;28;84187;-51
2022/01/14 00:32:50;;;;;;;13.43;5.05;;;2.70;99.90;;;;;;10289546;28;84968;-53
2022/01/14 00:37:51;;;;;;;16.73;5.47;;;2.80;99.90;;;;;;10290177;28;84972;-51
2022/01/14 00:42:52;;;;;;;11.38;4.80;;;2.90;99.90;;;;;;10287192;28;84088;-51
2022/01/14 00:47:53;;;;;;;18.85;4.40;;;2.70;99.90;;;;;;10281388;22;84293;-45
2022/01/14 00:52:53;;;;;;;13.23;5.43;;;2.70;99.90;;;;;;10209804;28;84108;-46
2022/01/14 01:02:59;;;;;;;13.40;4.68;;;2.70;99.90;;;;;;10207229;28;84859;-45
2022/01/14 01:08:08;;;;;;;10.02;4.38;;;2.80;99.90;;;;;;10204466;28;84978;-46
2022/01/14 01:13:17;;;;;;;14.52;5.30;;;2.80;99.90;;;;;;10205990;28;85256;-45
2022/01/14 01:18:19;;;;;;;15.95;5.82;;;2.80;99.90;;;;;;10205553;28;83986;-45
2022/01/14 01:23:20;;;;;;;12.43;4.78;;;2.80;99.90;;;;;;10205825;28;84071;-45
2022/01/14 01:28:40;;;;;;;13.55;5.28;;;2.80;99.90;;;;;;10203447;28;86886;-46
2022/01/14 01:33:40;;;;;;;11.73;4.13;;;2.70;99.90;;;;;;10205863;28;84097;-45
2022/01/14 01:38:41;;;;;;;10.95;3.83;;;2.60;99.90;;;;;;10204954;28;84148;-44
2022/01/14 01:43:43;;;;;;;10.18;3.90;;;2.60;99.90;;;;;;10204999;28;84779;-46
2022/01/14 01:48:43;;;;;;;11.45;3.47;;;2.70;99.90;;;;;;10203114;28;84292;-48
2022/01/14 01:53:44;;;;;;;12.20;4.90;;;2.70;99.90;;;;;;10205271;28;84965;-46
2022/01/14 01:58:45;;;;;;;12.40;4.07;;;2.80;99.90;;;;;;10204676;28;84859;-47
2022/01/14 02:03:46;;;;;;;10.65;4.80;;;2.80;99.90;;;;;;10204502;28;84187;-50
2022/01/14 02:08:47;;;;;;;11.18;4.65;;;2.90;99.90;;;;;;10203461;28;84143;-49
2022/01/14 02:13:53;;;;;;;11.23;4.38;;;2.90;99.90;;;;;;10218935;28;86326;-50
2022/01/14 02:19:17;;;;;;;10.43;4.15;;;2.90;99.90;;;;;;10203375;28;84913;-48
2022/01/14 02:29:20;;;;;;;11.07;4.53;;;3.00;99.90;;;;;;10201435;28;85856;-47
2022/01/14 02:34:20;;;;;;;10.23;5.20;;;3.00;99.90;;;;;;10204147;28;84790;-46
2022/01/14 02:39:21;;;;;;;10.65;4.82;;;3.00;99.90;;;;;;10203212;28;84010;-46
2022/01/14 02:44:27;;;;;;;9.88;4.45;;;3.00;99.90;;;;;;10204443;28;84128;-46
2022/01/14 02:49:30;;;;;;;14.60;4.97;;;3.10;99.90;;;;;;10203192;28;84775;-47
2022/01/14 02:54:51;;;;;;;8.85;4.32;;;3.10;99.90;;;;;;10203559;28;84012;-49
2022/01/14 02:59:52;;;;;;;10.90;4.13;;;3.10;99.90;;;;;;10203488;28;84945;-46
2022/01/14 03:04:54;;;;;;;11.25;4.78;;;3.10;99.90;;;;;;10203714;28;84127;-48
2022/01/14 03:09:54;;;;;;;15.10;5.15;;;3.20;99.90;;;;;;10217608;28;84890;-50
2022/01/14 03:14:55;;;;;;;13.35;4.47;;;3.20;99.90;;;;;;10201994;28;85896;-47
2022/01/14 03:19:58;;;;;;;11.15;4.10;;;3.20;99.90;;;;;;10205481;28;84131;-47
2022/01/14 03:30:19;;;;;;;14.63;4.68;;;3.20;99.90;;;;;;10209384;28;84239;-46
2022/01/14 03:35:20;;;;;;;11.43;4.22;;;3.30;99.90;;;;;;10209166;28;84001;-46
2022/01/14 03:40:21;;;;;;;10.20;4.50;;;3.20;99.90;;;;;;10209106;28;84164;-48
2022/01/14 03:45:21;;;;;;;16.15;4.93;;;3.20;99.90;;;;;;10208941;28;84008;-45
2022/01/14 03:50:22;;;;;;;10.60;3.97;;;3.30;99.90;;;;;;10208255;28;84145;-49
2022/01/14 03:55:22;;;;;;;12.20;4.13;;;3.20;99.90;;;;;;10208542;28;84731;-48
2022/01/14 04:00:23;;;;;;;12.45;4.22;;;3.20;99.90;;;;;;10208333;28;84884;-48
2022/01/14 04:05:24;;;;;;;9.80;4.05;;;3.20;99.90;;;;;;10208176;28;83995;-46
2022/01/14 04:10:26;;;;;;;10.98;4.55;;;3.20;99.90;;;;;;10207135;28;84094;-46
2022/01/14 04:15:47;;;;;;;10.68;4.05;;;3.20;99.90;;;;;;10208322;28;84244;-45
2022/01/14 04:20:50;;;;;;;12.57;4.65;;;3.10;99.90;;;;;;10209466;28;85192;-47
2022/01/14 04:25:53;;;;;;;12.82;3.85;;;3.10;99.90;;;;;;10208228;28;85829;-45
2022/01/14 04:30:54;;;;;;;13.98;4.88;;;3.00;99.90;;;;;;10208374;28;84175;-45
2022/01/14 04:35:56;;;;;;;12.32;5.20;;;3.00;99.90;;;;;;10208180;28;84174;-46
2022/01/14 04:40:57;;;;;;;12.95;5.32;;;3.00;99.90;;;;;;10208622;28;84882;-45
2022/01/14 04:51:03;;;;;;;10.40;4.72;;;2.90;99.90;;;;;;10207421;28;84192;-47
2022/01/14 04:56:04;;;;;;;10.20;3.85;;;2.90;99.90;;;;;;10207737;28;84162;-44
2022/01/14 05:01:05;;;;;;;13.23;4.57;;;2.90;99.90;;;;;;10207695;28;84735;-47
2022/01/14 05:06:07;;;;;;;9.32;4.22;;;3.00;99.90;;;;;;10207814;28;85000;-47
2022/01/14 05:16:17;;;;;;;10.93;4.10;;;3.00;99.90;;;;;;10206546;28;84015;-48
2022/01/14 05:21:19;;;;;;;10.05;3.42;;;3.10;99.90;;;;;;10206655;28;84794;-48
2022/01/14 05:26:20;;;;;;;10.05;3.90;;;3.00;99.90;;;;;;10206282;28;84796;-47
2022/01/14 05:31:39;;;;;;;11.57;4.53;;;3.00;99.90;;;;;;10204446;28;85832;-47
2022/01/14 05:36:40;;;;;;;10.65;4.10;;;3.00;99.90;;;;;;10207102;28;84339;-45
2022/01/14 05:41:40;;;;;;;9.32;4.25;;;3.00;99.90;;;;;;10205654;28;84040;-46
2022/01/14 05:46:41;;;;;;;12.23;4.88;;;3.00;99.90;;;;;;10206993;28;84125;-47
2022/01/14 05:51:42;;;;;;;12.23;4.55;;;3.10;99.90;;;;;;10206477;28;84075;-47
2022/01/14 05:56:42;;;;;;;10.82;4.03;;;3.20;99.90;;;;;;10220644;28;84981;-46
2022/01/14 06:01:44;;;;;;;11.23;3.92;;;3.00;99.90;;;;;;10204498;28;84296;-46
2022/01/14 06:06:44;;;;;;;12.88;3.53;;;3.00;99.90;;;;;;10203187;28;84263;-48
2022/01/14 06:11:45;;;;;;;9.75;4.57;;;3.00;99.90;;;;;;10203196;28;84997;-48
2022/01/14 06:16:46;;;;;;;12.48;3.67;;;2.90;99.90;;;;;;10203733;28;84809;-48
2022/01/14 06:21:47;;;;;;;10.70;4.72;;;2.80;99.90;;;;;;10204018;28;84215;-50
2022/01/14 06:26:47;;;;;;;10.43;4.22;;;2.80;99.90;;;;;;10201070;28;86973;-46
2022/01/14 06:31:48;;;;;;;8.85;3.13;;;2.60;99.90;;;;;;10204397;28;84506;-46
2022/01/14 06:36:49;;;;;;;9.65;4.07;;;2.70;99.90;;;;;;10203624;28;84016;-49
2022/01/14 06:41:50;;;;;;;9.27;3.42;;;2.60;99.90;;;;;;10222848;28;86351;-50
2022/01/14 06:46:51;;;;;;;13.35;4.88;;;2.70;99.90;;;;;;10213212;28;84952;-44
2022/01/14 06:51:52;;;;;;;11.88;4.30;;;2.70;99.90;;;;;;10213038;22;84849;-53
2022/01/14 06:56:52;;;;;;;8.52;3.67;;;2.60;99.90;;;;;;10208792;28;84114;-56
2022/01/14 07:01:53;;;;;;;10.60;4.50;;;2.60;99.90;;;;;;10211958;28;85045;-52
2022/01/14 07:06:54;;;;;;;15.43;5.45;;;2.70;99.90;;;;;;10211930;28;84261;-55
2022/01/14 07:11:57;;;;;;;13.25;3.65;;;2.80;99.90;;;;;;10211786;28;84185;-53
2022/01/14 07:16:58;;;;;;;13.32;4.13;;;2.90;99.90;;;;;;10211312;28;84089;-56
2022/01/14 07:21:59;;;;;;;10.13;5.20;;;2.90;99.90;;;;;;10211171;28;85010;-55
2022/01/14 07:26:59;;;;;;;11.52;4.30;;;2.80;99.90;;;;;;10210425;28;84878;-56
2022/01/14 07:32:00;;;;;;;10.40;4.65;;;2.80;99.90;;;;;;10211448;28;84003;-56
2022/01/14 07:37:01;;;;;;;9.02;3.80;;;2.80;99.90;;;;;;10211606;28;85122;-54
2022/01/14 07:42:02;;;;;;;14.70;5.00;;;2.70;99.90;;;;;;10209114;28;84275;-56
2022/01/14 07:47:03;;;;;;;11.38;4.30;;;2.80;99.90;;;;;;10208809;28;85799;-55
2022/01/14 07:52:04;;;;;;;13.02;4.78;;;2.90;99.90;;;;;;10209563;28;84330;-52
2022/01/14 07:57:07;;;;;;;14.68;5.45;;;3.00;99.90;;;;;;10208446;28;84099;-54
2022/01/14 08:02:08;;;;;;;10.90;4.35;;;3.00;99.90;;;;;;10204457;28;86017;-56
2022/01/14 08:07:09;;;;;;;17.45;4.65;;;2.90;99.90;;;;;;10214846;28;85769;-55
2022/01/14 08:12:12;;;;;;;16.90;5.85;;;3.00;99.90;;;;;;10209534;28;84030;-59
2022/01/14 08:17:16;;;;;;;10.68;4.85;;;3.00;99.90;;;;;;10208908;28;84924;-56
2022/01/14 08:22:17;;;;;;;12.38;5.65;;;3.00;99.90;;;;;;10208989;28;84954;-58
2022/01/14 08:27:17;;;;;;;13.48;4.57;;;3.00;99.90;;;;;;10205994;28;84840;-56
2022/01/14 08:32:18;;;;;;;14.30;5.57;;;3.10;99.90;;;;;;10207577;28;84994;-58
2022/01/14 08:37:19;;;;;;;15.60;4.82;;;3.10;99.90;;;;;;10224315;28;84084;-58
2022/01/14 08:42:19;;;;;;;16.23;5.63;;;3.10;99.90;;;;;;10240520;28;84181;-58
2022/01/14 08:47:20;;;;;;;12.57;4.65;;;3.30;99.90;;;;;;10248165;28;84288;-55
2022/01/14 08:52:21;;;;;;;15.68;5.10;;;3.30;99.90;;;;;;10227084;28;86855;-53
2022/01/14 08:57:21;;;;;;;12.90;4.30;;;3.30;99.90;;;;;;10207425;28;84981;-58
2022/01/14 09:02:22;;;;;;;12.98;5.30;;;3.30;99.90;;;;;;10207412;28;84049;-56
2022/01/14 09:07:23;;;;;;;14.95;4.97;;;3.20;99.90;;;;;;10212662;28;85068;-58
2022/01/14 09:12:23;;;;;;;13.02;5.32;;;3.30;99.90;;;;;;10240021;28;84315;-58
2022/01/14 09:17:24;;;;;;;12.10;4.45;;;3.30;99.90;;;;;;10246448;28;84069;-55
2022/01/14 09:22:28;;;;;;;9.25;4.80;;;3.30;99.90;;;;;;10238765;28;84345;-55
2022/01/14 09:27:29;;;;;;;11.45;4.57;;;3.40;99.90;;;;;;10239559;28;84021;-59
2022/01/14 09:32:31;;;;;;;19.17;6.18;;;3.40;99.90;;;;;;10248211;28;84027;-55
2022/01/14 09:37:32;;;;;;;18.63;5.53;;;3.50;99.90;;;;;;10230457;28;84773;-58
2022/01/14 09:42:32;;;;;;;17.08;4.85;;;3.40;99.90;;;;;;10238023;28;86049;-56
2022/01/14 09:47:33;;;;;;;13.00;5.55;;;3.50;99.90;;;;;;10246848;28;84395;-62
2022/01/14 09:52:35;;;;;;;16.08;5.80;;;3.60;99.90;;;;;;10231676;28;84227;-59
2022/01/14 09:57:36;;;;;;;14.23;5.75;;;3.70;99.90;;;;;;10208764;28;84197;-51
2022/01/14 10:02:40;;;;;;;10.95;4.45;;;3.60;99.90;;;;;;10207098;28;84092;-53
2022/01/14 10:07:41;;;;;;;16.75;5.65;;;3.60;99.90;;;;;;10204891;28;84268;-59
2022/01/14 10:12:41;;;;;;;11.48;5.25;;;3.60;99.90;;;;;;10202254;28;84251;-59
2022/01/14 10:17:44;;;;;;;18.63;5.80;;;3.70;99.90;;;;;;10203686;28;86946;-53
2022/01/14 10:22:48;;;;;;;17.65;6.70;;;3.80;99.90;;;;;;10206195;28;85116;-57
2022/01/14 10:27:53;;;;;;;13.07;5.80;;;4.00;99.90;;;;;;10206385;28;83979;-57
2022/01/14 10:32:59;;;;;;;15.73;6.68;;;4.00;99.90;;;;;;10207156;28;85148;-57
2022/01/14 10:38:05;;;;;;;13.48;5.40;;;3.90;99.90;;;;;;10206557;28;84994;-56
2022/01/14 10:43:08;;;;;;;13.65;5.40;;;3.90;99.90;;;;;;10205361;28;86849;-58
2022/01/14 10:48:12;;;;;;;16.48;6.65;;;4.00;99.90;;;;;;10206320;28;84827;-58
2022/01/14 10:53:16;;;;;;;16.10;5.13;;;4.10;99.90;;;;;;10206400;28;84034;-57
2022/01/14 10:58:25;;;;;;;15.43;6.03;;;4.20;99.90;;;;;;10205774;28;85027;-57
2022/01/14 11:03:36;;;;;;;20.30;6.22;;;4.20;99.90;;;;;;10206141;28;84058;-53
2022/01/14 11:08:37;;;;;;;19.33;5.07;;;4.30;99.90;;;;;;10205524;28;84893;-58
2022/01/14 11:13:37;;;;;;;12.45;4.90;;;4.30;99.90;;;;;;10205671;28;84964;-57
2022/01/14 11:18:39;;;;;;;15.23;5.40;;;4.50;99.90;;;;;;10205734;28;85280;-56
2022/01/14 11:23:39;;;;;;;22.17;6.95;;;4.40;99.90;;;;;;10206309;28;84990;-55
2022/01/14 11:28:42;;;;;;;13.40;5.05;;;4.50;99.90;;;;;;10204156;28;84990;-58
2022/01/14 11:33:43;;;;;;;18.67;6.38;;;4.60;99.90;;;;;;10205931;28;84994;-56
2022/01/14 11:38:46;;;;;;;18.80;6.45;;;4.60;99.90;;;;;;10205372;28;85181;-54
2022/01/14 11:43:49;;;;;;;17.85;7.40;;;4.70;99.90;;;;;;10210515;28;84229;-56
2022/01/14 11:48:52;;;;;;;17.95;6.47;;;4.70;99.90;;;;;;10212098;28;84784;-53
2022/01/14 11:54:03;;;;;;;19.75;6.88;;;4.80;99.90;;;;;;10206720;28;84466;-53
2022/01/14 11:59:19;;;;;;;16.10;6.68;;;4.90;99.90;;;;;;10214152;28;85130;-58
2022/01/14 12:04:21;;;;;;;26.58;7.38;;;4.80;99.90;;;;;;10211257;28;84083;-55
2022/01/14 12:09:23;;;;;;;21.88;6.88;;;4.80;99.90;;;;;;10210756;28;84877;-51
2022/01/14 12:14:37;;;;;;;22.38;6.90;;;4.90;99.90;;;;;;10249205;28;85011;-55
2022/01/14 12:19:39;;;;;;;20.42;6.65;;;5.00;99.90;;;;;;10233985;28;84146;-59
2022/01/14 12:24:41;;;;;;;22.77;8.35;;;5.00;99.90;;;;;;10212342;28;84180;-59
2022/01/14 12:30:00;;;;;;;17.83;6.72;;;5.10;99.90;;;;;;10208516;28;85000;-58
2022/01/14 12:35:08;;;;;;;22.67;7.45;;;5.10;99.90;;;;;;10207498;28;84994;-57
2022/01/14 12:40:13;;;;;;;20.48;7.85;;;5.20;99.90;;;;;;10202442;28;87133;-59
2022/01/14 12:45:28;;;;;;;20.65;7.57;;;5.10;99.90;;;;;;10210000;28;84197;-60
2022/01/14 12:50:30;;;;;;;25.10;8.85;;;5.20;99.90;;;;;;10215428;28;85087;-59
2022/01/14 12:55:34;;;;;;;23.23;8.30;;;5.20;99.90;;;;;;10208643;28;84285;-58
2022/01/14 13:00:35;;;;;;;25.25;8.32;;;5.20;99.90;;;;;;10208090;28;84143;-57
2022/01/14 13:05:36;;;;;;;23.60;8.27;;;5.20;99.90;;;;;;10208493;28;84889;-52
2022/01/14 13:10:37;;;;;;;25.23;8.05;;;5.30;99.90;;;;;;10207804;28;84235;-57
2022/01/14 13:15:37;;;;;;;20.60;7.45;;;5.40;99.90;;;;;;10207757;28;84366;-53
2022/01/14 13:20:38;;;;;;;20.92;7.93;;;5.40;99.90;;;;;;10206879;28;87327;-52
2022/01/14 13:25:39;;;;;;;21.40;7.82;;;5.50;99.90;;;;;;10213850;28;84215;-56
2022/01/14 13:30:42;;;;;;;20.52;7.88;;;5.40;99.90;;;;;;10203153;28;84670;-57
2022/01/14 13:35:46;;;;;;;26.05;7.70;;;5.40;99.90;;;;;;10256458;22;85112;-60
2022/01/14 13:40:57;;;;;;;21.52;7.53;;;5.40;99.90;;;;;;10326853;28;84089;-49
2022/01/14 13:46:05;;;;;;;27.70;7.88;;;5.40;99.90;;;;;;10298949;28;84216;-53
2022/01/14 13:51:10;;;;;;;20.48;7.95;;;5.40;99.90;;;;;;10246872;28;84965;-50
2022/01/14 13:56:20;;;;;;;22.05;8.55;;;5.30;99.90;;;;;;10263276;28;84434;-49
2022/01/14 14:01:21;;;;;;;19.48;7.00;;;5.40;99.90;;;;;;10245132;28;87868;-52
2022/01/14 14:06:36;;;;;;;18.95;7.70;;;5.40;99.90;;;;;;10281480;28;84796;-51
2022/01/14 14:16:47;;;;;;;28.10;8.82;;;5.50;99.90;;;;;;10279180;28;85622;-59
2022/01/14 14:22:09;;;;;;;21.30;8.00;;;5.50;99.90;;;;;;10286193;28;83972;-51
2022/01/14 14:27:13;;;;;;;22.27;8.48;;;5.40;99.90;;;;;;10290813;28;84861;-52
2022/01/14 14:32:27;;;;;;;23.50;8.80;;;5.40;99.90;;;;;;10320819;28;84113;-47
2022/01/14 14:37:32;;;;;;;25.50;8.73;;;5.30;99.90;;;;;;10325611;28;85766;-47
2022/01/14 14:42:33;;;;;;;24.08;9.27;;;5.40;99.90;;;;;;10305144;28;84143;-52
2022/01/14 14:47:34;;;;;;;21.80;8.50;;;5.50;99.90;;;;;;10288406;28;84911;-51
2022/01/14 14:52:36;;;;;;;17.95;7.88;;;5.50;99.90;;;;;;10289471;28;84138;-52
2022/01/14 14:57:36;;;;;;;25.65;8.45;;;5.60;99.90;;;;;;10287485;28;84502;-47
2022/01/14 15:02:44;;;;;;;25.40;8.93;;;5.60;99.90;;;;;;10286661;28;86352;-47
2022/01/14 15:07:45;;;;;;;26.60;9.27;;;5.60;99.90;;;;;;10285749;28;84861;-48
2022/01/14 15:12:47;;;;;;;24.58;8.00;;;5.50;99.90;;;;;;10285741;28;85182;-52
2022/01/14 15:22:56;;;;;;;23.85;7.90;;;5.40;99.90;;;;;;10328283;28;84351;-48
2022/01/14 15:27:57;;;;;;;23.60;8.02;;;5.30;99.90;;;;;;10309000;28;85218;-48
2022/01/14 15:32:58;;;;;;;21.75;7.72;;;5.30;99.90;;;;;;10302295;28;84085;-47
2022/01/14 15:38:03;;;;;;;21.75;8.10;;;5.40;99.90;;;;;;10322375;28;84864;-49
2022/01/14 15:43:04;;;;;;;29.65;8.73;;;5.30;99.90;;;;;;10332050;28;84977;-46
2022/01/14 15:48:05;;;;;;;20.52;7.38;;;5.30;99.90;;;;;;10331215;28;84216;-60
2022/01/14 15:53:06;;;;;;;23.88;8.02;;;5.30;99.90;;;;;;10334042;28;84276;-47
2022/01/14 15:58:08;;;;;;;25.48;8.07;;;5.30;99.90;;;;;;10334289;28;84131;-48
2022/01/14 16:03:08;;;;;;;33.03;9.85;;;5.40;99.90;;;;;;10316161;28;84906;-47
2022/01/14 16:08:09;;;;;;;23.42;9.82;;;5.40;99.90;;;;;;10278405;28;85216;-50
2022/01/14 16:13:10;;;;;;;24.65;9.45;;;5.30;99.90;;;;;;10306848;28;84209;-51
2022/01/14 16:18:12;;;;;;;24.70;9.25;;;5.30;99.90;;;;;;10302085;28;84847;-54
2022/01/14 16:23:12;;;;;;;16.15;8.45;;;5.30;99.90;;;;;;10306973;28;84183;-50
2022/01/14 16:28:13;;;;;;;17.77;8.27;;;5.30;99.90;;;;;;10282538;28;84201;-48
2022/01/14 16:33:14;;;;;;;24.13;9.18;;;5.40;99.90;;;;;;10282549;28;84347;-50
2022/01/14 16:38:15;;;;;;;25.95;9.95;;;5.40;99.90;;;;;;10284195;28;84119;-50
2022/01/14 16:43:17;;;;;;;27.42;9.45;;;5.40;99.90;;;;;;10282935;28;84205;-51
2022/01/14 16:48:19;;;;;;;28.40;9.48;;;5.40;99.90;;;;;;10276762;28;85931;-52
2022/01/14 16:53:19;;;;;;;27.15;10.18;;;5.30;99.90;;;;;;10268288;28;84166;-52
2022/01/14 16:58:20;;;;;;;20.10;7.85;;;5.40;99.90;;;;;;10272925;28;84851;-52
2022/01/14 17:03:22;;;;;;;23.70;9.65;;;5.40;99.90;;;;;;10289892;28;84748;-49
2022/01/14 17:08:22;;;;;;;23.52;9.45;;;5.40;99.90;;;;;;10288511;28;84968;-49
2022/01/14 17:13:24;;;;;;;24.95;9.25;;;5.30;99.90;;;;;;10288696;28;84798;-51
2022/01/14 17:18:24;;;;;;;26.92;9.80;;;5.30;99.90;;;;;;10286051;28;84329;-50
2022/01/14 17:23:25;;;;;;;26.10;9.85;;;5.30;99.90;;;;;;10279926;28;84899;-53
2022/01/14 17:28:28;;;;;;;24.38;8.63;;;5.30;99.90;;;;;;10287121;28;84396;-53
2022/01/14 17:33:29;;;;;;;28.13;9.13;;;5.30;99.90;;;;;;10300061;28;84795;-50
2022/01/14 17:38:29;;;;;;;25.30;9.07;;;5.30;99.90;;;;;;10297883;28;84904;-52
2022/01/14 17:43:32;;;;;;;26.33;9.23;;;5.40;99.90;;;;;;10275128;28;85609;-53
2022/01/14 17:48:32;;;;;;;28.85;9.23;;;5.40;99.90;;;;;;10277455;28;85079;-49
2022/01/14 17:53:33;;;;;;;21.60;8.90;;;5.30;99.90;;;;;;10274305;28;86557;-49
2022/01/14 17:58:34;;;;;;;30.50;10.55;;;5.30;99.90;;;;;;10277956;28;84871;-49
2022/01/14 18:03:35;;;;;;;28.98;10.95;;;5.30;99.90;;;;;;10282510;28;84228;-51
2022/01/14 18:08:35;;;;;;;27.15;9.00;;;5.20;99.90;;;;;;10288251;28;84963;-52
2022/01/14 18:13:40;;;;;;;27.63;9.98;;;5.30;99.90;;;;;;10269517;28;85612;-49
2022/01/14 18:18:41;;;;;;;26.73;10.13;;;5.40;99.90;;;;;;10281827;28;84448;-50
2022/01/14 18:23:42;;;;;;;29.98;9.93;;;5.40;99.90;;;;;;10282170;28;84216;-54
2022/01/14 18:28:42;;;;;;;26.95;9.23;;;5.40;99.90;;;;;;10282486;28;84885;-51
2022/01/14 18:33:43;;;;;;;25.00;10.23;;;5.40;99.90;;;;;;10278383;28;85625;-50
2022/01/14 18:38:46;;;;;;;32.78;10.77;;;5.30;99.90;;;;;;10285589;28;85058;-52
2022/01/14 18:43:50;;;;;;;25.17;9.80;;;5.30;99.90;;;;;;10286830;28;84992;-51
2022/01/14 18:48:52;;;;;;;24.77;8.85;;;5.30;99.90;;;;;;10279508;28;86659;-48
2022/01/14 18:53:52;;;;;;;29.55;9.25;;;5.20;99.90;;;;;;10323184;28;84939;-53
2022/01/14 18:58:55;;;;;;;26.40;10.13;;;5.20;99.90;;;;;;10333439;28;84997;-51
2022/01/14 19:03:56;;;;;;;28.73;9.50;;;5.20;99.90;;;;;;10295845;28;84291;-53
2022/01/14 19:08:57;;;;;;;26.85;9.50;;;5.30;99.90;;;;;;10292729;28;84304;-53
2022/01/14 19:14:04;;;;;;;33.58;10.73;;;5.30;99.90;;;;;;10301862;28;85273;-50
2022/01/14 19:19:06;;;;;;;28.98;9.57;;;5.30;99.90;;;;;;10283534;28;84965;-51
2022/01/14 19:24:08;;;;;;;23.35;9.05;;;5.30;99.90;;;;;;10283763;28;84977;-53
2022/01/14 19:29:08;;;;;;;28.20;11.38;;;5.30;99.90;;;;;;10288980;28;85172;-51
2022/01/14 19:34:09;;;;;;;34.03;10.95;;;5.30;99.90;;;;;;10287680;28;84957;-49
2022/01/14 19:39:10;;;;;;;28.67;9.63;;;5.30;99.90;;;;;;10290316;28;84932;-53
2022/01/14 19:44:11;;;;;;;30.90;10.77;;;5.40;99.90;;;;;;10295401;28;84982;-50
2022/01/14 19:49:12;;;;;;;27.10;10.52;;;5.40;99.90;;;;;;10290985;28;85241;-53
2022/01/14 19:54:13;;;;;;;36.08;11.07;;;5.40;99.90;;;;;;10296741;22;84421;-52
2022/01/14 19:59:14;;;;;;;28.70;9.68;;;5.40;99.90;;;;;;10248950;28;84308;-49
2022/01/14 20:04:15;;;;;;;27.50;9.57;;;5.30;99.90;;;;;;10249064;28;84971;-59
2022/01/14 20:09:15;;;;;;;22.05;8.63;;;5.30;99.90;;;;;;10248786;28;84249;-52
2022/01/14 20:14:16;;;;;;;26.95;9.57;;;5.30;99.90;;;;;;10245571;28;85991;-54
2022/01/14 20:19:17;;;;;;;24.33;9.02;;;5.30;99.90;;;;;;10247883;28;84952;-51
2022/01/14 20:24:18;;;;;;;28.23;9.35;;;5.40;99.90;;;;;;10253432;28;84866;-51
2022/01/14 20:29:18;;;;;;;27.52;10.30;;;5.40;99.90;;;;;;10243226;28;84000;-50
2022/01/14 20:34:19;;;;;;;25.00;8.68;;;5.40;99.90;;;;;;10248699;28;84563;-49
2022/01/14 20:39:20;;;;;;;27.08;8.90;;;5.30;99.90;;;;;;10249158;28;84188;-50
2022/01/14 20:44:21;;;;;;;27.95;9.98;;;5.40;99.90;;;;;;10229880;28;85141;-56
2022/01/14 20:49:22;;;;;;;25.17;8.93;;;5.40;99.90;;;;;;10246267;28;85103;-55
2022/01/14 20:54:23;;;;;;;25.35;10.32;;;5.40;99.90;;;;;;10243968;28;84359;-54
2022/01/14 20:59:24;;;;;;;26.50;10.05;;;5.40;99.90;;;;;;10248873;28;85693;-53
2022/01/14 21:04:24;;;;;;;23.38;8.07;;;5.40;99.90;;;;;;10239065;28;84955;-52
2022/01/14 21:09:26;;;;;;;22.05;8.25;;;5.50;99.90;;;;;;10240469;28;87083;-48
2022/01/14 21:14:27;;;;;;;25.83;10.35;;;5.40;99.90;;;;;;10246578;28;85081;-50
2022/01/14 21:19:27;;;;;;;30.63;10.73;;;5.50;99.90;;;;;;10259672;28;84953;-49
2022/01/14 21:24:28;;;;;;;29.38;10.07;;;5.50;99.90;;;;;;10269574;28;84109;-53
2022/01/14 21:29:29;;;;;;;33.65;9.50;;;5.40;99.90;;;;;;10248792;28;84090;-51
2022/01/14 21:34:29;;;;;;;27.05;9.10;;;5.50;99.90;;;;;;10260646;28;84111;-53
2022/01/14 21:39:30;;;;;;;28.17;9.05;;;5.50;99.90;;;;;;10261517;28;84939;-52
2022/01/14 21:44:31;;;;;;;19.00;8.10;;;5.40;99.90;;;;;;10248230;28;85403;-47
2022/01/14 21:49:32;;;;;;;23.80;7.85;;;5.40;99.90;;;;;;10247711;28;85581;-49
2022/01/14 21:54:33;;;;;;;22.42;8.13;;;5.40;99.90;;;;;;10248331;28;84917;-48
2022/01/14 21:59:37;;;;;;;25.45;9.50;;;5.40;99.90;;;;;;10245911;28;85030;-53
2022/01/14 22:04:40;;;;;;;27.23;9.70;;;5.50;99.90;;;;;;10243016;28;84339;-49
2022/01/14 22:09:40;;;;;;;22.90;8.82;;;5.50;99.90;;;;;;10244659;28;84837;-52
2022/01/14 22:14:53;;;;;;;24.92;8.88;;;5.50;99.90;;;;;;10246628;28;84585;-49
2022/01/14 22:19:54;;;;;;;27.75;8.90;;;5.60;99.90;;;;;;10243525;28;84855;-51
2022/01/14 22:24:54;;;;;;;27.17;9.20;;;5.60;99.90;;;;;;10244868;28;84204;-49
2022/01/14 22:29:55;;;;;;;25.63;8.52;;;5.50;99.90;;;;;;10243794;28;84963;-51
2022/01/14 22:34:55;;;;;;;27.58;9.05;;;5.50;99.90;;;;;;10245142;28;84091;-49
2022/01/14 22:39:56;;;;;;;27.38;9.05;;;5.50;99.90;;;;;;10239978;28;86120;-50
2022/01/14 22:44:57;;;;;;;28.73;8.75;;;5.70;99.90;;;;;;10241209;28;84350;-53
2022/01/14 22:49:57;;;;;;;26.60;8.77;;;5.70;99.90;;;;;;10243338;28;84945;-49
2022/01/14 22:54:58;;;;;;;19.10;8.35;;;5.70;99.90;;;;;;10244953;28;83966;-48
2022/01/14 22:59:59;;;;;;;24.83;9.55;;;5.80;99.90;;;;;;10261231;28;84182;-48
2022/01/14 23:05:04;;;;;;;21.90;8.07;;;5.60;99.90;;;;;;10276753;28;84227;-50
2022/01/14 23:10:05;;;;;;;22.38;8.52;;;5.70;99.90;;;;;;10264871;28;84117;-51
2022/01/14 23:15:07;;;;;;;25.40;8.43;;;5.70;99.90;;;;;;10244908;28;84741;-50
2022/01/14 23:20:08;;;;;;;30.55;9.40;;;5.60;99.90;;;;;;10244517;28;84054;-49
2022/01/14 23:25:12;;;;;;;29.27;8.85;;;5.60;99.90;;;;;;10244681;28;85206;-46
2022/01/14 23:30:14;;;;;;;26.80;9.10;;;5.60;99.90;;;;;;10257746;28;86841;-50
2022/01/14 23:35:15;;;;;;;22.33;7.00;;;5.70;99.90;;;;;;10262641;28;84144;-51
2022/01/14 23:40:17;;;;;;;24.63;8.90;;;5.70;99.90;;;;;;10292130;28;84090;-47
2022/01/14 23:50:21;;;;;;;24.58;8.13;;;5.60;99.90;;;;;;10290553;28;87042;-47
2022/01/14 23:55:23;;;;;;;28.52;9.40;;;5.50;99.90;;;;;;10255302;28;84414;-48
